sensor_id;sensor_type;location;lat;lon;timestamp;P1;durP1;ratioP1;P2;durP2;ratioP2
43650;SDS011;29247;50.944;5.382;2023-06-22T00:00:08;14.45;;;4.30;;
43650;SDS011;29247;50.944;5.382;2023-06-22T00:02:39;13.57;;;4.55;;
43650;SDS011;29247;50.944;5.382;2023-06-22T00:05:05;16.75;;;4.43;;
43650;SDS011;29247;50.944;5.382;2023-06-22T00:07:31;10.95;;;4.50;;
43650;SDS011;29247;50.944;5.382;2023-06-22T00:09:57;15.73;;;4.30;;
43650;SDS011;29247;50.944;5.382;2023-06-22T00:12:25;14.07;;;4.25;;
43650;SDS011;29247;50.944;5.382;2023-06-22T00:14:51;15.10;;;4.22;;
43650;SDS011;29247;50.944;5.382;2023-06-22T00:17:17;17.88;;;4.35;;
43650;SDS011;29247;50.944;5.382;2023-06-22T00:19:42;13.30;;;4.18;;
43650;SDS011;29247;50.944;5.382;2023-06-22T00:22:08;14.38;;;4.10;;
43650;SDS011;29247;50.944;5.382;2023-06-22T00:24:36;13.65;;;4.20;;
43650;SDS011;29247;50.944;5.382;2023-06-22T00:27:04;9.02;;;4.10;;
43650;SDS011;29247;50.944;5.382;2023-06-22T00:29:33;20.42;;;4.00;;
43650;SDS011;29247;50.944;5.382;2023-06-22T00:31:59;18.92;;;4.10;;
43650;SDS011;29247;50.944;5.382;2023-06-22T00:34:25;10.40;;;4.70;;
43650;SDS011;29247;50.944;5.382;2023-06-22T00:36:54;12.30;;;3.92;;
43650;SDS011;29247;50.944;5.382;2023-06-22T00:39:20;19.65;;;5.05;;
43650;SDS011;29247;50.944;5.382;2023-06-22T00:41:48;13.25;;;3.47;;
43650;SDS011;29247;50.944;5.382;2023-06-22T00:44:13;8.00;;;3.83;;
43650;SDS011;29247;50.944;5.382;2023-06-22T00:46:41;14.05;;;4.38;;
43650;SDS011;29247;50.944;5.382;2023-06-22T00:49:07;7.40;;;3.28;;
43650;SDS011;29247;50.944;5.382;2023-06-22T00:51:33;15.77;;;3.55;;
43650;SDS011;29247;50.944;5.382;2023-06-22T00:54:01;13.82;;;4.55;;
43650;SDS011;29247;50.944;5.382;2023-06-22T00:56:30;10.10;;;3.22;;
43650;SDS011;29247;50.944;5.382;2023-06-22T00:58:58;17.85;;;4.32;;
43650;SDS011;29247;50.944;5.382;2023-06-22T01:01:25;12.98;;;3.33;;
43650;SDS011;29247;50.944;5.382;2023-06-22T01:03:53;10.63;;;2.95;;
43650;SDS011;29247;50.944;5.382;2023-06-22T01:06:26;10.95;;;3.45;;
43650;SDS011;29247;50.944;5.382;2023-06-22T01:09:15;15.23;;;4.38;;
43650;SDS011;29247;50.944;5.382;2023-06-22T01:11:52;10.73;;;3.80;;
43650;SDS011;29247;50.944;5.382;2023-06-22T01:14:43;13.75;;;4.25;;
43650;SDS011;29247;50.944;5.382;2023-06-22T01:17:17;9.68;;;3.38;;
43650;SDS011;29247;50.944;5.382;2023-06-22T01:19:45;13.50;;;3.25;;
43650;SDS011;29247;50.944;5.382;2023-06-22T01:22:17;10.63;;;3.38;;
43650;SDS011;29247;50.944;5.382;2023-06-22T01:27:19;12.75;;;4.18;;
43650;SDS011;29247;50.944;5.382;2023-06-22T01:29:51;13.13;;;3.58;;
43650;SDS011;29247;50.944;5.382;2023-06-22T01:32:34;11.05;;;3.42;;
43650;SDS011;29247;50.944;5.382;2023-06-22T01:35:03;15.95;;;4.35;;
43650;SDS011;29247;50.944;5.382;2023-06-22T01:37:30;17.38;;;4.07;;
43650;SDS011;29247;50.944;5.382;2023-06-22T01:39:58;11.18;;;4.30;;
43650;SDS011;29247;50.944;5.382;2023-06-22T01:42:27;17.15;;;4.30;;
43650;SDS011;29247;50.944;5.382;2023-06-22T01:44:56;14.95;;;5.03;;
43650;SDS011;29247;50.944;5.382;2023-06-22T01:47:25;17.27;;;5.30;;
43650;SDS011;29247;50.944;5.382;2023-06-22T01:49:54;14.82;;;4.30;;
43650;SDS011;29247;50.944;5.382;2023-06-22T01:52:22;15.57;;;4.50;;
43650;SDS011;29247;50.944;5.382;2023-06-22T01:54:50;17.13;;;4.90;;
43650;SDS011;29247;50.944;5.382;2023-06-22T01:57:16;14.98;;;4.47;;
43650;SDS011;29247;50.944;5.382;2023-06-22T01:59:48;17.10;;;3.80;;
43650;SDS011;29247;50.944;5.382;2023-06-22T02:02:23;12.73;;;4.68;;
43650;SDS011;29247;50.944;5.382;2023-06-22T02:09:54;19.48;;;5.25;;
43650;SDS011;29247;50.944;5.382;2023-06-22T02:12:23;21.75;;;4.70;;
43650;SDS011;29247;50.944;5.382;2023-06-22T02:14:53;13.85;;;4.57;;
43650;SDS011;29247;50.944;5.382;2023-06-22T02:17:19;12.90;;;3.53;;
43650;SDS011;29247;50.944;5.382;2023-06-22T02:19:48;17.27;;;4.93;;
43650;SDS011;29247;50.944;5.382;2023-06-22T02:22:14;15.10;;;4.45;;
43650;SDS011;29247;50.944;5.382;2023-06-22T02:24:39;19.77;;;4.30;;
43650;SDS011;29247;50.944;5.382;2023-06-22T02:27:07;14.68;;;4.15;;
43650;SDS011;29247;50.944;5.382;2023-06-22T02:29:36;17.83;;;5.63;;
43650;SDS011;29247;50.944;5.382;2023-06-22T02:32:05;12.85;;;6.00;;
43650;SDS011;29247;50.944;5.382;2023-06-22T02:34:31;12.50;;;5.18;;
43650;SDS011;29247;50.944;5.382;2023-06-22T02:37:01;16.98;;;4.75;;
43650;SDS011;29247;50.944;5.382;2023-06-22T02:39:27;9.52;;;3.83;;
43650;SDS011;29247;50.944;5.382;2023-06-22T02:41:55;12.13;;;4.57;;
43650;SDS011;29247;50.944;5.382;2023-06-22T02:44:26;10.45;;;4.50;;
43650;SDS011;29247;50.944;5.382;2023-06-22T02:46:51;13.43;;;5.80;;
43650;SDS011;29247;50.944;5.382;2023-06-22T02:49:17;11.52;;;6.75;;
43650;SDS011;29247;50.944;5.382;2023-06-22T02:51:45;13.40;;;6.38;;
43650;SDS011;29247;50.944;5.382;2023-06-22T02:54:12;13.90;;;7.93;;
43650;SDS011;29247;50.944;5.382;2023-06-22T02:56:38;11.73;;;6.25;;
43650;SDS011;29247;50.944;5.382;2023-06-22T02:59:05;16.70;;;7.20;;
43650;SDS011;29247;50.944;5.382;2023-06-22T03:01:33;12.60;;;6.38;;
43650;SDS011;29247;50.944;5.382;2023-06-22T03:04:04;11.50;;;5.78;;
43650;SDS011;29247;50.944;5.382;2023-06-22T03:06:33;12.45;;;6.15;;
43650;SDS011;29247;50.944;5.382;2023-06-22T03:08:59;10.48;;;6.60;;
43650;SDS011;29247;50.944;5.382;2023-06-22T03:11:31;11.45;;;7.30;;
43650;SDS011;29247;50.944;5.382;2023-06-22T03:13:57;15.35;;;6.13;;
43650;SDS011;29247;50.944;5.382;2023-06-22T03:16:24;9.07;;;5.45;;
43650;SDS011;29247;50.944;5.382;2023-06-22T03:18:50;12.50;;;6.15;;
43650;SDS011;29247;50.944;5.382;2023-06-22T03:21:19;15.05;;;8.23;;
43650;SDS011;29247;50.944;5.382;2023-06-22T03:23:45;13.10;;;7.90;;
43650;SDS011;29247;50.944;5.382;2023-06-22T03:26:16;12.10;;;8.13;;
43650;SDS011;29247;50.944;5.382;2023-06-22T03:28:42;14.57;;;8.65;;
43650;SDS011;29247;50.944;5.382;2023-06-22T03:31:10;10.52;;;6.40;;
43650;SDS011;29247;50.944;5.382;2023-06-22T03:33:38;11.32;;;7.47;;
43650;SDS011;29247;50.944;5.382;2023-06-22T03:36:09;13.70;;;6.95;;
43650;SDS011;29247;50.944;5.382;2023-06-22T03:41:07;13.90;;;7.78;;
43650;SDS011;29247;50.944;5.382;2023-06-22T03:43:33;12.27;;;7.43;;
43650;SDS011;29247;50.944;5.382;2023-06-22T03:45:58;10.38;;;5.57;;
43650;SDS011;29247;50.944;5.382;2023-06-22T03:48:26;9.63;;;5.72;;
43650;SDS011;29247;50.944;5.382;2023-06-22T03:50:54;12.55;;;9.40;;
43650;SDS011;29247;50.944;5.382;2023-06-22T03:53:20;11.63;;;6.50;;
43650;SDS011;29247;50.944;5.382;2023-06-22T03:55:52;7.88;;;5.20;;
43650;SDS011;29247;50.944;5.382;2023-06-22T03:58:20;10.85;;;6.32;;
43650;SDS011;29247;50.944;5.382;2023-06-22T04:00:47;10.50;;;6.68;;
43650;SDS011;29247;50.944;5.382;2023-06-22T04:03:19;11.15;;;7.03;;
43650;SDS011;29247;50.944;5.382;2023-06-22T04:08:13;11.07;;;7.30;;
43650;SDS011;29247;50.944;5.382;2023-06-22T04:10:39;8.73;;;6.22;;
43650;SDS011;29247;50.944;5.382;2023-06-22T04:13:08;9.05;;;6.40;;
43650;SDS011;29247;50.944;5.382;2023-06-22T04:15:33;11.30;;;7.10;;
43650;SDS011;29247;50.944;5.382;2023-06-22T04:17:59;11.05;;;7.30;;
43650;SDS011;29247;50.944;5.382;2023-06-22T04:20:25;13.15;;;7.88;;
43650;SDS011;29247;50.944;5.382;2023-06-22T04:22:52;11.55;;;6.88;;
43650;SDS011;29247;50.944;5.382;2023-06-22T04:25:21;9.90;;;7.65;;
43650;SDS011;29247;50.944;5.382;2023-06-22T04:27:50;8.98;;;6.35;;
43650;SDS011;29247;50.944;5.382;2023-06-22T04:30:18;9.27;;;6.65;;
43650;SDS011;29247;50.944;5.382;2023-06-22T04:32:44;11.13;;;6.60;;
43650;SDS011;29247;50.944;5.382;2023-06-22T04:35:10;7.45;;;5.35;;
43650;SDS011;29247;50.944;5.382;2023-06-22T04:37:37;9.40;;;6.03;;
43650;SDS011;29247;50.944;5.382;2023-06-22T04:40:04;9.95;;;6.47;;
43650;SDS011;29247;50.944;5.382;2023-06-22T04:42:30;10.00;;;7.00;;
43650;SDS011;29247;50.944;5.382;2023-06-22T04:44:57;12.63;;;7.75;;
43650;SDS011;29247;50.944;5.382;2023-06-22T04:47:25;13.02;;;9.20;;
43650;SDS011;29247;50.944;5.382;2023-06-22T04:49:51;11.18;;;8.38;;
43650;SDS011;29247;50.944;5.382;2023-06-22T04:52:16;14.27;;;10.95;;
43650;SDS011;29247;50.944;5.382;2023-06-22T04:54:45;16.35;;;11.07;;
43650;SDS011;29247;50.944;5.382;2023-06-22T04:57:20;16.48;;;11.05;;
43650;SDS011;29247;50.944;5.382;2023-06-22T04:59:46;18.20;;;10.90;;
43650;SDS011;29247;50.944;5.382;2023-06-22T05:02:12;15.52;;;11.45;;
43650;SDS011;29247;50.944;5.382;2023-06-22T05:04:38;17.27;;;11.05;;
43650;SDS011;29247;50.944;5.382;2023-06-22T05:07:06;18.15;;;12.40;;
43650;SDS011;29247;50.944;5.382;2023-06-22T05:09:35;16.50;;;11.73;;
43650;SDS011;29247;50.944;5.382;2023-06-22T05:12:03;15.48;;;11.57;;
43650;SDS011;29247;50.944;5.382;2023-06-22T05:14:29;20.48;;;12.80;;
43650;SDS011;29247;50.944;5.382;2023-06-22T05:16:57;15.05;;;11.18;;
43650;SDS011;29247;50.944;5.382;2023-06-22T05:19:28;16.88;;;12.98;;
43650;SDS011;29247;50.944;5.382;2023-06-22T05:21:58;19.17;;;12.10;;
43650;SDS011;29247;50.944;5.382;2023-06-22T05:24:26;17.10;;;12.15;;
43650;SDS011;29247;50.944;5.382;2023-06-22T05:29:22;16.33;;;11.38;;
43650;SDS011;29247;50.944;5.382;2023-06-22T05:31:48;15.38;;;10.48;;
43650;SDS011;29247;50.944;5.382;2023-06-22T05:34:15;16.33;;;11.02;;
43650;SDS011;29247;50.944;5.382;2023-06-22T05:36:43;17.10;;;11.30;;
43650;SDS011;29247;50.944;5.382;2023-06-22T05:39:12;21.48;;;12.50;;
43650;SDS011;29247;50.944;5.382;2023-06-22T05:41:39;17.70;;;12.65;;
43650;SDS011;29247;50.944;5.382;2023-06-22T05:44:05;18.70;;;12.43;;
43650;SDS011;29247;50.944;5.382;2023-06-22T05:46:30;19.77;;;12.63;;
43650;SDS011;29247;50.944;5.382;2023-06-22T05:48:56;19.88;;;13.55;;
43650;SDS011;29247;50.944;5.382;2023-06-22T05:51:21;19.92;;;13.82;;
43650;SDS011;29247;50.944;5.382;2023-06-22T05:53:49;23.63;;;14.40;;
43650;SDS011;29247;50.944;5.382;2023-06-22T05:56:18;19.10;;;13.85;;
43650;SDS011;29247;50.944;5.382;2023-06-22T05:58:46;19.30;;;13.85;;
43650;SDS011;29247;50.944;5.382;2023-06-22T06:01:12;20.23;;;13.13;;
43650;SDS011;29247;50.944;5.382;2023-06-22T06:03:40;20.50;;;14.30;;
43650;SDS011;29247;50.944;5.382;2023-06-22T06:06:07;23.58;;;13.65;;
43650;SDS011;29247;50.944;5.382;2023-06-22T06:08:32;20.88;;;13.88;;
43650;SDS011;29247;50.944;5.382;2023-06-22T06:10:58;19.33;;;12.90;;
43650;SDS011;29247;50.944;5.382;2023-06-22T06:13:24;21.35;;;12.40;;
43650;SDS011;29247;50.944;5.382;2023-06-22T06:15:50;19.15;;;13.93;;
43650;SDS011;29247;50.944;5.382;2023-06-22T06:18:16;18.65;;;14.05;;
43650;SDS011;29247;50.944;5.382;2023-06-22T06:20:42;21.73;;;14.75;;
43650;SDS011;29247;50.944;5.382;2023-06-22T06:23:11;21.45;;;14.82;;
43650;SDS011;29247;50.944;5.382;2023-06-22T06:28:04;22.75;;;14.40;;
43650;SDS011;29247;50.944;5.382;2023-06-22T06:30:30;20.13;;;14.13;;
43650;SDS011;29247;50.944;5.382;2023-06-22T06:32:56;20.70;;;14.10;;
43650;SDS011;29247;50.944;5.382;2023-06-22T06:35:22;22.73;;;15.43;;
43650;SDS011;29247;50.944;5.382;2023-06-22T06:37:51;18.40;;;15.00;;
43650;SDS011;29247;50.944;5.382;2023-06-22T06:40:17;19.73;;;15.32;;
43650;SDS011;29247;50.944;5.382;2023-06-22T06:42:45;18.60;;;14.75;;
43650;SDS011;29247;50.944;5.382;2023-06-22T06:45:12;20.38;;;14.68;;
43650;SDS011;29247;50.944;5.382;2023-06-22T06:47:44;20.70;;;14.75;;
43650;SDS011;29247;50.944;5.382;2023-06-22T06:50:11;21.58;;;15.65;;
43650;SDS011;29247;50.944;5.382;2023-06-22T06:52:39;19.98;;;14.45;;
43650;SDS011;29247;50.944;5.382;2023-06-22T06:55:10;25.50;;;16.52;;
43650;SDS011;29247;50.944;5.382;2023-06-22T06:57:39;21.58;;;15.25;;
43650;SDS011;29247;50.944;5.382;2023-06-22T07:00:11;18.83;;;14.00;;
43650;SDS011;29247;50.944;5.382;2023-06-22T07:02:40;21.38;;;15.40;;
43650;SDS011;29247;50.944;5.382;2023-06-22T07:05:07;22.92;;;17.08;;
43650;SDS011;29247;50.944;5.382;2023-06-22T07:07:37;23.98;;;16.52;;
43650;SDS011;29247;50.944;5.382;2023-06-22T07:10:04;21.95;;;16.05;;
43650;SDS011;29247;50.944;5.382;2023-06-22T07:12:33;21.97;;;15.77;;
43650;SDS011;29247;50.944;5.382;2023-06-22T07:15:05;19.15;;;14.82;;
43650;SDS011;29247;50.944;5.382;2023-06-22T07:17:38;24.27;;;15.23;;
43650;SDS011;29247;50.944;5.382;2023-06-22T07:20:07;21.23;;;14.77;;
43650;SDS011;29247;50.944;5.382;2023-06-22T07:22:43;21.88;;;15.85;;
43650;SDS011;29247;50.944;5.382;2023-06-22T07:25:14;22.80;;;15.05;;
43650;SDS011;29247;50.944;5.382;2023-06-22T07:28:01;21.63;;;15.23;;
43650;SDS011;29247;50.944;5.382;2023-06-22T07:30:28;21.33;;;15.10;;
43650;SDS011;29247;50.944;5.382;2023-06-22T07:32:54;19.08;;;14.18;;
43650;SDS011;29247;50.944;5.382;2023-06-22T07:35:21;23.38;;;14.98;;
43650;SDS011;29247;50.944;5.382;2023-06-22T07:37:46;22.05;;;16.02;;
43650;SDS011;29247;50.944;5.382;2023-06-22T07:40:12;19.70;;;14.98;;
43650;SDS011;29247;50.944;5.382;2023-06-22T07:42:38;20.25;;;15.02;;
43650;SDS011;29247;50.944;5.382;2023-06-22T07:45:04;19.92;;;14.40;;
43650;SDS011;29247;50.944;5.382;2023-06-22T07:47:35;21.92;;;14.38;;
43650;SDS011;29247;50.944;5.382;2023-06-22T07:50:02;27.63;;;15.77;;
43650;SDS011;29247;50.944;5.382;2023-06-22T07:52:28;21.77;;;16.33;;
43650;SDS011;29247;50.944;5.382;2023-06-22T07:54:55;29.17;;;16.40;;
43650;SDS011;29247;50.944;5.382;2023-06-22T07:57:24;25.60;;;16.50;;
43650;SDS011;29247;50.944;5.382;2023-06-22T07:59:57;21.45;;;15.70;;
43650;SDS011;29247;50.944;5.382;2023-06-22T08:02:24;20.80;;;16.58;;
43650;SDS011;29247;50.944;5.382;2023-06-22T08:04:50;21.77;;;15.75;;
43650;SDS011;29247;50.944;5.382;2023-06-22T08:07:17;20.50;;;14.05;;
43650;SDS011;29247;50.944;5.382;2023-06-22T08:09:46;22.90;;;16.10;;
43650;SDS011;29247;50.944;5.382;2023-06-22T08:12:14;22.33;;;16.88;;
43650;SDS011;29247;50.944;5.382;2023-06-22T08:14:41;23.95;;;16.00;;
43650;SDS011;29247;50.944;5.382;2023-06-22T08:17:07;19.88;;;15.45;;
43650;SDS011;29247;50.944;5.382;2023-06-22T08:19:36;20.45;;;15.50;;
43650;SDS011;29247;50.944;5.382;2023-06-22T08:22:02;18.17;;;15.27;;
43650;SDS011;29247;50.944;5.382;2023-06-22T08:24:28;22.23;;;15.63;;
43650;SDS011;29247;50.944;5.382;2023-06-22T08:26:55;19.67;;;15.10;;
43650;SDS011;29247;50.944;5.382;2023-06-22T08:29:23;20.55;;;14.32;;
43650;SDS011;29247;50.944;5.382;2023-06-22T08:31:49;19.67;;;14.15;;
43650;SDS011;29247;50.944;5.382;2023-06-22T08:34:15;19.27;;;14.43;;
43650;SDS011;29247;50.944;5.382;2023-06-22T08:36:47;21.75;;;14.88;;
43650;SDS011;29247;50.944;5.382;2023-06-22T08:41:45;20.98;;;15.15;;
43650;SDS011;29247;50.944;5.382;2023-06-22T08:44:12;21.13;;;15.05;;
43650;SDS011;29247;50.944;5.382;2023-06-22T08:46:43;25.27;;;15.82;;
43650;SDS011;29247;50.944;5.382;2023-06-22T08:49:10;19.70;;;15.02;;
43650;SDS011;29247;50.944;5.382;2023-06-22T08:51:36;22.42;;;15.45;;
43650;SDS011;29247;50.944;5.382;2023-06-22T08:54:04;23.40;;;14.73;;
43650;SDS011;29247;50.944;5.382;2023-06-22T08:56:30;20.60;;;14.52;;
43650;SDS011;29247;50.944;5.382;2023-06-22T08:58:55;23.77;;;15.65;;
43650;SDS011;29247;50.944;5.382;2023-06-22T09:01:21;21.27;;;15.95;;
43650;SDS011;29247;50.944;5.382;2023-06-22T09:03:47;20.65;;;15.02;;
43650;SDS011;29247;50.944;5.382;2023-06-22T09:06:22;21.20;;;15.32;;
43650;SDS011;29247;50.944;5.382;2023-06-22T09:08:50;23.73;;;15.90;;
43650;SDS011;29247;50.944;5.382;2023-06-22T09:11:19;20.67;;;14.45;;
43650;SDS011;29247;50.944;5.382;2023-06-22T09:13:47;21.77;;;16.00;;
43650;SDS011;29247;50.944;5.382;2023-06-22T09:16:15;23.90;;;16.25;;
43650;SDS011;29247;50.944;5.382;2023-06-22T09:18:41;21.88;;;16.08;;
43650;SDS011;29247;50.944;5.382;2023-06-22T09:21:14;24.02;;;17.33;;
43650;SDS011;29247;50.944;5.382;2023-06-22T09:23:40;21.95;;;15.13;;
43650;SDS011;29247;50.944;5.382;2023-06-22T09:26:06;19.85;;;15.45;;
43650;SDS011;29247;50.944;5.382;2023-06-22T09:28:32;22.40;;;16.98;;
43650;SDS011;29247;50.944;5.382;2023-06-22T09:31:01;22.40;;;15.95;;
43650;SDS011;29247;50.944;5.382;2023-06-22T09:33:29;25.27;;;18.25;;
43650;SDS011;29247;50.944;5.382;2023-06-22T09:35:54;20.50;;;14.93;;
43650;SDS011;29247;50.944;5.382;2023-06-22T09:38:22;20.67;;;16.55;;
43650;SDS011;29247;50.944;5.382;2023-06-22T09:40:51;22.40;;;15.98;;
43650;SDS011;29247;50.944;5.382;2023-06-22T09:43:16;26.40;;;17.70;;
43650;SDS011;29247;50.944;5.382;2023-06-22T09:45:42;19.13;;;14.90;;
43650;SDS011;29247;50.944;5.382;2023-06-22T09:48:08;20.13;;;15.75;;
43650;SDS011;29247;50.944;5.382;2023-06-22T09:50:35;18.40;;;14.25;;
43650;SDS011;29247;50.944;5.382;2023-06-22T09:53:01;24.17;;;17.13;;
43650;SDS011;29247;50.944;5.382;2023-06-22T09:55:28;18.33;;;15.73;;
43650;SDS011;29247;50.944;5.382;2023-06-22T09:57:53;18.25;;;14.75;;
43650;SDS011;29247;50.944;5.382;2023-06-22T10:00:23;20.55;;;15.98;;
43650;SDS011;29247;50.944;5.382;2023-06-22T10:02:51;19.42;;;15.57;;
43650;SDS011;29247;50.944;5.382;2023-06-22T10:05:17;22.38;;;16.50;;
43650;SDS011;29247;50.944;5.382;2023-06-22T10:07:43;30.10;;;17.75;;
43650;SDS011;29247;50.944;5.382;2023-06-22T10:10:09;23.65;;;18.27;;
43650;SDS011;29247;50.944;5.382;2023-06-22T10:12:37;21.67;;;17.08;;
43650;SDS011;29247;50.944;5.382;2023-06-22T10:15:07;23.88;;;18.17;;
43650;SDS011;29247;50.944;5.382;2023-06-22T10:17:33;24.50;;;18.25;;
43650;SDS011;29247;50.944;5.382;2023-06-22T10:20:01;23.40;;;19.92;;
43650;SDS011;29247;50.944;5.382;2023-06-22T10:22:31;27.65;;;19.00;;
43650;SDS011;29247;50.944;5.382;2023-06-22T10:24:57;27.90;;;20.38;;
43650;SDS011;29247;50.944;5.382;2023-06-22T10:27:22;26.13;;;19.08;;
43650;SDS011;29247;50.944;5.382;2023-06-22T10:29:53;26.42;;;19.70;;
43650;SDS011;29247;50.944;5.382;2023-06-22T10:32:19;27.50;;;20.45;;
43650;SDS011;29247;50.944;5.382;2023-06-22T10:34:44;25.05;;;19.83;;
43650;SDS011;29247;50.944;5.382;2023-06-22T10:37:13;26.27;;;20.13;;
43650;SDS011;29247;50.944;5.382;2023-06-22T10:39:41;31.15;;;21.42;;
43650;SDS011;29247;50.944;5.382;2023-06-22T10:42:09;31.95;;;21.48;;
43650;SDS011;29247;50.944;5.382;2023-06-22T10:44:37;28.27;;;20.52;;
43650;SDS011;29247;50.944;5.382;2023-06-22T10:47:04;29.42;;;22.52;;
43650;SDS011;29247;50.944;5.382;2023-06-22T10:49:29;33.38;;;22.70;;
43650;SDS011;29247;50.944;5.382;2023-06-22T10:51:58;29.25;;;21.73;;
43650;SDS011;29247;50.944;5.382;2023-06-22T10:54:24;32.10;;;22.10;;
43650;SDS011;29247;50.944;5.382;2023-06-22T10:56:54;28.48;;;21.52;;
43650;SDS011;29247;50.944;5.382;2023-06-22T10:59:22;31.60;;;22.52;;
43650;SDS011;29247;50.944;5.382;2023-06-22T11:01:48;28.38;;;20.92;;
43650;SDS011;29247;50.944;5.382;2023-06-22T11:04:14;32.05;;;21.95;;
43650;SDS011;29247;50.944;5.382;2023-06-22T11:06:40;27.85;;;20.83;;
43650;SDS011;29247;50.944;5.382;2023-06-22T11:09:06;29.33;;;21.33;;
43650;SDS011;29247;50.944;5.382;2023-06-22T11:11:31;30.30;;;20.27;;
43650;SDS011;29247;50.944;5.382;2023-06-22T11:13:57;29.00;;;22.05;;
43650;SDS011;29247;50.944;5.382;2023-06-22T11:16:25;32.53;;;21.80;;
43650;SDS011;29247;50.944;5.382;2023-06-22T11:18:51;29.70;;;22.98;;
43650;SDS011;29247;50.944;5.382;2023-06-22T11:21:19;32.85;;;23.20;;
43650;SDS011;29247;50.944;5.382;2023-06-22T11:23:45;31.50;;;23.48;;
43650;SDS011;29247;50.944;5.382;2023-06-22T11:26:13;34.85;;;25.30;;
43650;SDS011;29247;50.944;5.382;2023-06-22T11:28:39;31.60;;;24.67;;
43650;SDS011;29247;50.944;5.382;2023-06-22T11:31:07;33.22;;;24.13;;
43650;SDS011;29247;50.944;5.382;2023-06-22T11:33:36;35.85;;;24.63;;
43650;SDS011;29247;50.944;5.382;2023-06-22T11:36:02;35.78;;;24.80;;
43650;SDS011;29247;50.944;5.382;2023-06-22T11:38:27;31.70;;;23.88;;
43650;SDS011;29247;50.944;5.382;2023-06-22T11:40:53;29.25;;;23.05;;
43650;SDS011;29247;50.944;5.382;2023-06-22T11:43:20;31.65;;;24.83;;
43650;SDS011;29247;50.944;5.382;2023-06-22T11:45:45;33.17;;;23.88;;
43650;SDS011;29247;50.944;5.382;2023-06-22T11:48:11;31.20;;;22.60;;
43650;SDS011;29247;50.944;5.382;2023-06-22T11:50:39;32.13;;;23.73;;
43650;SDS011;29247;50.944;5.382;2023-06-22T11:53:05;33.80;;;22.83;;
43650;SDS011;29247;50.944;5.382;2023-06-22T11:55:32;29.90;;;23.70;;
43650;SDS011;29247;50.944;5.382;2023-06-22T11:57:58;33.00;;;23.92;;
43650;SDS011;29247;50.944;5.382;2023-06-22T12:00:27;33.55;;;25.00;;
43650;SDS011;29247;50.944;5.382;2023-06-22T12:02:53;33.30;;;23.88;;
43650;SDS011;29247;50.944;5.382;2023-06-22T12:05:19;31.58;;;23.48;;
43650;SDS011;29247;50.944;5.382;2023-06-22T12:07:50;29.60;;;23.30;;
43650;SDS011;29247;50.944;5.382;2023-06-22T12:10:18;29.77;;;21.88;;
43650;SDS011;29247;50.944;5.382;2023-06-22T12:12:44;30.77;;;22.05;;
43650;SDS011;29247;50.944;5.382;2023-06-22T12:15:12;32.28;;;22.50;;
43650;SDS011;29247;50.944;5.382;2023-06-22T12:17:42;29.55;;;22.25;;
43650;SDS011;29247;50.944;5.382;2023-06-22T12:20:08;29.92;;;21.67;;
43650;SDS011;29247;50.944;5.382;2023-06-22T12:22:34;30.35;;;22.63;;
43650;SDS011;29247;50.944;5.382;2023-06-22T12:25:02;29.60;;;22.23;;
43650;SDS011;29247;50.944;5.382;2023-06-22T12:27:31;35.30;;;24.02;;
43650;SDS011;29247;50.944;5.382;2023-06-22T12:29:59;29.75;;;21.67;;
43650;SDS011;29247;50.944;5.382;2023-06-22T12:32:25;31.15;;;22.40;;
43650;SDS011;29247;50.944;5.382;2023-06-22T12:34:51;27.75;;;21.15;;
43650;SDS011;29247;50.944;5.382;2023-06-22T12:37:17;33.60;;;23.48;;
43650;SDS011;29247;50.944;5.382;2023-06-22T12:39:43;32.13;;;24.67;;
43650;SDS011;29247;50.944;5.382;2023-06-22T12:42:09;30.95;;;23.13;;
43650;SDS011;29247;50.944;5.382;2023-06-22T12:44:39;30.17;;;22.92;;
43650;SDS011;29247;50.944;5.382;2023-06-22T12:47:05;31.80;;;22.45;;
43650;SDS011;29247;50.944;5.382;2023-06-22T12:49:37;35.85;;;24.40;;
43650;SDS011;29247;50.944;5.382;2023-06-22T12:52:03;34.55;;;24.95;;
43650;SDS011;29247;50.944;5.382;2023-06-22T12:54:36;34.70;;;23.90;;
43650;SDS011;29247;50.944;5.382;2023-06-22T12:57:04;32.78;;;23.75;;
43650;SDS011;29247;50.944;5.382;2023-06-22T12:59:30;30.08;;;23.30;;
43650;SDS011;29247;50.944;5.382;2023-06-22T13:01:56;36.47;;;24.23;;
43650;SDS011;29247;50.944;5.382;2023-06-22T13:04:21;32.90;;;25.02;;
43650;SDS011;29247;50.944;5.382;2023-06-22T13:06:47;30.40;;;22.23;;
43650;SDS011;29247;50.944;5.382;2023-06-22T13:09:17;32.08;;;23.20;;
43650;SDS011;29247;50.944;5.382;2023-06-22T13:14:09;27.08;;;21.15;;
43650;SDS011;29247;50.944;5.382;2023-06-22T13:16:35;28.00;;;21.42;;
43650;SDS011;29247;50.944;5.382;2023-06-22T13:19:03;31.10;;;20.73;;
43650;SDS011;29247;50.944;5.382;2023-06-22T13:23:57;26.10;;;19.13;;
43650;SDS011;29247;50.944;5.382;2023-06-22T13:26:26;26.83;;;19.27;;
43650;SDS011;29247;50.944;5.382;2023-06-22T13:28:53;24.88;;;18.95;;
43650;SDS011;29247;50.944;5.382;2023-06-22T13:31:22;22.60;;;16.80;;
43650;SDS011;29247;50.944;5.382;2023-06-22T13:33:47;25.05;;;17.45;;
43650;SDS011;29247;50.944;5.382;2023-06-22T13:36:14;22.52;;;16.25;;
43650;SDS011;29247;50.944;5.382;2023-06-22T13:38:42;21.58;;;15.13;;
43650;SDS011;29247;50.944;5.382;2023-06-22T13:41:11;20.65;;;15.50;;
43650;SDS011;29247;50.944;5.382;2023-06-22T13:43:36;20.17;;;14.48;;
43650;SDS011;29247;50.944;5.382;2023-06-22T13:46:02;19.00;;;14.15;;
43650;SDS011;29247;50.944;5.382;2023-06-22T13:48:30;23.27;;;15.63;;
43650;SDS011;29247;50.944;5.382;2023-06-22T13:50:58;23.20;;;15.05;;
43650;SDS011;29247;50.944;5.382;2023-06-22T13:53:28;19.35;;;15.25;;
43650;SDS011;29247;50.944;5.382;2023-06-22T13:55:56;20.30;;;14.57;;
43650;SDS011;29247;50.944;5.382;2023-06-22T13:58:22;20.70;;;15.02;;
43650;SDS011;29247;50.944;5.382;2023-06-22T14:00:48;18.55;;;14.90;;
43650;SDS011;29247;50.944;5.382;2023-06-22T14:03:14;19.90;;;15.38;;
43650;SDS011;29247;50.944;5.382;2023-06-22T14:05:41;22.55;;;16.13;;
43650;SDS011;29247;50.944;5.382;2023-06-22T14:08:07;20.73;;;15.90;;
43650;SDS011;29247;50.944;5.382;2023-06-22T14:10:44;26.33;;;17.73;;
43650;SDS011;29247;50.944;5.382;2023-06-22T14:13:10;22.42;;;16.55;;
43650;SDS011;29247;50.944;5.382;2023-06-22T14:15:36;24.15;;;17.77;;
43650;SDS011;29247;50.944;5.382;2023-06-22T14:18:03;24.50;;;17.95;;
43650;SDS011;29247;50.944;5.382;2023-06-22T14:20:29;23.15;;;17.38;;
43650;SDS011;29247;50.944;5.382;2023-06-22T14:22:57;22.95;;;17.67;;
43650;SDS011;29247;50.944;5.382;2023-06-22T14:25:25;22.40;;;17.75;;
43650;SDS011;29247;50.944;5.382;2023-06-22T14:27:55;23.90;;;18.10;;
43650;SDS011;29247;50.944;5.382;2023-06-22T14:30:21;22.83;;;17.52;;
43650;SDS011;29247;50.944;5.382;2023-06-22T14:32:46;22.20;;;17.60;;
43650;SDS011;29247;50.944;5.382;2023-06-22T14:35:12;25.50;;;17.80;;
43650;SDS011;29247;50.944;5.382;2023-06-22T14:37:41;23.25;;;18.83;;
43650;SDS011;29247;50.944;5.382;2023-06-22T14:40:09;28.13;;;18.10;;
43650;SDS011;29247;50.944;5.382;2023-06-22T14:42:36;22.67;;;17.83;;
43650;SDS011;29247;50.944;5.382;2023-06-22T14:45:01;20.63;;;16.75;;
43650;SDS011;29247;50.944;5.382;2023-06-22T14:47:29;22.38;;;17.15;;
43650;SDS011;29247;50.944;5.382;2023-06-22T14:49:56;24.10;;;17.92;;
43650;SDS011;29247;50.944;5.382;2023-06-22T14:52:24;21.27;;;16.23;;